createdAt,value
2022-09-12T00:14:45.378Z,443.18
2022-09-12T00:20:18.513Z,443.35
2022-09-12T00:25:49.793Z,444.22
2022-09-12T00:36:50.606Z,444.39
2022-09-12T00:42:21.997Z,444.91
2022-09-12T00:47:53.600Z,444.91
2022-09-12T00:53:25.002Z,445.26
2022-09-12T00:58:56.520Z,445.61
2022-09-12T01:04:28.010Z,446.13
2022-09-12T01:09:59.362Z,446.48
2022-09-12T01:15:30.837Z,446.83
2022-09-12T01:21:02.635Z,447.17
2022-09-12T01:26:33.905Z,447.26
2022-09-12T01:32:05.715Z,447.96
2022-09-12T01:37:37.277Z,448.30
2022-09-12T01:43:08.647Z,448.65
2022-09-12T01:48:40.158Z,448.83
2022-09-12T01:54:11.953Z,448.83
2022-09-12T01:59:43.442Z,449.69
2022-09-12T02:05:14.929Z,449.87
2022-09-12T02:10:46.181Z,450.22
2022-09-12T02:16:18.012Z,450.56
2022-09-12T02:21:49.419Z,451.35
2022-09-12T02:27:21.017Z,451.87
2022-09-12T02:32:52.381Z,452.04
2022-09-12T02:38:23.855Z,452.22
2022-09-12T02:43:55.221Z,452.56
2022-09-12T02:49:26.565Z,452.91
2022-09-12T02:54:58.286Z,452.74
2022-09-12T03:00:29.713Z,453.09
2022-09-12T03:06:00.988Z,452.91
2022-09-12T03:11:32.358Z,452.91
2022-09-12T03:17:03.639Z,453.43
2022-09-12T03:22:35.147Z,453.61
2022-09-12T03:33:35.919Z,453.61
2022-09-12T03:39:07.187Z,453.26
2022-09-12T03:44:38.635Z,453.61
2022-09-12T03:50:09.995Z,453.43
2022-09-12T03:55:41.772Z,453.43
2022-09-12T04:01:13.178Z,453.61
2022-09-12T04:06:44.495Z,453.61
2022-09-12T04:17:45.357Z,453.43
2022-09-12T04:23:16.825Z,453.61
2022-09-12T04:28:48.473Z,453.26
2022-09-12T04:34:20.017Z,453.26
2022-09-12T04:39:51.741Z,453.61
2022-09-12T04:45:23.299Z,453.43
2022-09-12T04:50:54.990Z,453.43
2022-09-12T05:01:55.816Z,453.26
2022-09-12T05:07:27.506Z,453.09
2022-09-12T05:12:58.888Z,453.09
2022-09-12T05:18:30.576Z,452.39
2022-09-12T05:24:01.981Z,452.39
2022-09-12T05:29:33.293Z,452.22
2022-09-12T05:35:05.000Z,451.87
2022-09-12T05:40:36.874Z,451.69
2022-09-12T05:46:08.607Z,451.52
2022-09-12T05:51:40.397Z,451.35
2022-09-12T05:57:12.083Z,451.26
2022-09-12T06:02:43.572Z,451.26
2022-09-12T06:08:15.245Z,451.26
2022-09-12T06:13:46.682Z,451.35
2022-09-12T06:19:18.364Z,451.35
2022-09-12T06:24:50.817Z,451.52
2022-09-12T06:30:25.356Z,451.52
2022-09-12T06:35:53.708Z,451.87
2022-09-12T06:41:25.112Z,451.52
2022-09-12T06:46:56.466Z,452.04
2022-09-12T06:52:28.251Z,452.22
2022-09-12T06:54:39.907Z,452.39
2022-09-12T07:00:11.103Z,452.39
2022-09-12T07:05:42.519Z,452.91
2022-09-12T07:11:13.747Z,452.74
2022-09-12T07:16:45.280Z,452.56
2022-09-12T07:27:50.595Z,453.09
2022-09-12T07:33:18.953Z,452.91
2022-09-12T07:38:52.105Z,452.56
2022-09-12T07:44:22.125Z,452.39
2022-09-12T07:49:53.713Z,452.22
2022-09-12T07:55:25.126Z,452.56
2022-09-12T08:00:56.927Z,452.56
2022-09-12T08:06:28.906Z,452.56
2022-09-12T08:12:00.502Z,452.39
2022-09-12T08:17:31.787Z,452.22
2022-09-12T08:23:03.051Z,452.22
2022-09-12T08:28:34.804Z,452.22
2022-09-12T08:34:06.203Z,452.04
2022-09-12T08:45:07.214Z,452.04
2022-09-12T08:50:38.761Z,452.04
2022-09-12T08:56:10.214Z,452.04
2022-09-12T09:01:41.966Z,452.22
2022-09-12T09:07:13.750Z,452.39
2022-09-12T09:12:45.478Z,452.74
2022-09-12T09:18:16.733Z,452.74
2022-09-12T09:23:48.068Z,453.26
2022-09-12T09:29:19.297Z,453.61
2022-09-12T09:34:50.612Z,454.30
2022-09-12T09:40:22.271Z,454.30
2022-09-12T09:45:53.660Z,454.48
2022-09-12T09:51:25.090Z,454.65
2022-09-12T09:56:56.385Z,454.65
2022-09-12T10:02:27.672Z,455.17
2022-09-12T10:07:59.278Z,455.00
2022-09-12T10:13:31.031Z,455.17
2022-09-12T10:19:02.795Z,455.52
2022-09-12T10:24:33.956Z,455.70
2022-09-12T10:30:05.346Z,456.13
2022-09-12T10:35:36.678Z,456.13
2022-09-12T10:41:08.380Z,456.30
2022-09-12T10:46:39.761Z,456.83
2022-09-12T10:52:11.185Z,456.65
2022-09-12T10:57:42.455Z,456.65
2022-09-12T11:03:13.824Z,457.00
2022-09-12T11:08:45.482Z,457.35
2022-09-12T11:14:16.707Z,457.17
2022-09-12T11:19:48.014Z,457.70
2022-09-12T11:25:19.501Z,457.87
2022-09-12T11:30:50.807Z,458.39
2022-09-12T11:36:22.020Z,458.74
2022-09-12T11:41:53.367Z,458.92
2022-09-12T11:47:24.704Z,459.09
2022-09-12T12:03:55.350Z,460.13
2022-09-12T12:09:26.972Z,460.13
2022-09-12T12:17:19.115Z,460.39
2022-09-12T12:22:50.789Z,460.39
2022-09-12T12:28:22.739Z,460.74
2022-09-12T12:33:54.238Z,461.61
2022-09-12T12:44:59.277Z,462.14
2022-09-12T12:50:30.663Z,462.83
2022-09-12T12:56:02.538Z,463.01
2022-09-12T13:01:34.286Z,463.35
2022-09-12T13:07:08.131Z,463.53
2022-09-12T13:12:37.235Z,463.88
2022-09-12T13:18:08.803Z,464.75
2022-09-12T13:23:40.550Z,465.36
2022-09-12T13:29:12.264Z,466.05
2022-09-12T13:34:43.851Z,466.58
2022-09-12T13:40:15.202Z,466.92
2022-09-12T13:45:47.230Z,466.92
2022-09-12T13:51:18.927Z,467.27
2022-09-12T13:56:50.607Z,467.97
2022-09-12T14:02:21.918Z,468.49
2022-09-12T14:07:53.279Z,468.67
2022-09-12T14:13:24.814Z,469.28
2022-09-12T14:18:56.111Z,469.45
2022-09-12T14:24:27.588Z,469.80
2022-09-12T14:29:58.731Z,470.32
2022-09-12T14:37:50.346Z,471.19
2022-09-12T14:43:21.149Z,471.37
2022-09-12T14:48:52.415Z,471.37
2022-09-12T14:54:23.891Z,471.72
2022-09-12T14:59:55.284Z,471.72
2022-09-12T15:05:27.197Z,471.72
2022-09-12T15:10:58.818Z,471.72
2022-09-12T15:16:30.468Z,471.89
2022-09-12T15:22:01.632Z,472.24
2022-09-12T15:27:33.042Z,472.59
2022-09-12T15:33:04.614Z,472.94
2022-09-12T15:38:36.360Z,473.02
2022-09-12T15:44:08.184Z,473.37
2022-09-12T15:49:39.825Z,473.72
2022-09-12T15:55:11.127Z,474.07
2022-09-12T16:00:42.522Z,474.24
2022-09-12T16:06:13.997Z,474.42
2022-09-12T16:11:45.750Z,474.77
2022-09-12T16:17:17.518Z,474.24
2022-09-12T16:22:49.311Z,474.94
2022-09-12T16:28:20.783Z,474.94
2022-09-12T16:33:52.331Z,475.29
2022-09-12T16:39:23.870Z,475.99
2022-09-12T16:44:56.013Z,476.16
2022-09-12T16:50:28.028Z,476.68
2022-09-12T16:55:59.745Z,477.21
2022-09-12T17:01:31.400Z,477.03
2022-09-12T17:07:02.768Z,477.21
2022-09-12T17:12:34.259Z,476.68
2022-09-12T17:18:05.897Z,476.51
2022-09-12T17:23:37.324Z,476.33
2022-09-12T17:29:08.819Z,476.16
2022-09-12T17:34:40.333Z,475.99
2022-09-12T17:40:12.047Z,476.16
2022-09-12T17:45:44.043Z,475.81
2022-09-12T17:51:15.631Z,475.81
2022-09-12T17:56:47.326Z,475.64
2022-09-12T18:02:18.966Z,475.64
2022-09-12T18:07:50.145Z,475.29
2022-09-12T18:13:22.253Z,475.29
2022-09-12T18:18:52.677Z,475.29
2022-09-12T18:24:23.953Z,475.11
2022-09-12T18:30:17.520Z,475.29
2022-09-12T18:35:27.085Z,475.11
2022-09-12T18:40:58.760Z,475.29
2022-09-12T18:46:30.836Z,475.46
2022-09-12T18:52:02.044Z,475.29
2022-09-12T18:57:33.550Z,475.64
2022-09-12T19:05:26.296Z,475.81
2022-09-12T19:10:58.703Z,475.99
2022-09-12T19:16:30.026Z,475.99
2022-09-12T19:22:01.316Z,475.81
2022-09-12T19:27:32.746Z,475.29
2022-09-12T19:33:04.093Z,475.29
2022-09-12T19:44:08.222Z,474.77
2022-09-12T19:57:31.290Z,474.77
2022-09-12T20:03:02.888Z,474.77
2022-09-12T20:14:05.987Z,474.07
2022-09-12T20:19:37.596Z,473.55
2022-09-12T20:25:08.925Z,473.72
2022-09-12T20:30:40.344Z,474.07
2022-09-12T20:36:11.622Z,474.59
2022-09-12T20:41:43.433Z,475.29
2022-09-12T20:47:15.038Z,475.46
2022-09-12T20:52:46.689Z,475.81
2022-09-12T20:58:18.303Z,475.99
2022-09-12T21:03:50.002Z,475.64
2022-09-12T21:09:21.883Z,475.81
2022-09-12T21:14:53.645Z,475.81
2022-09-12T21:20:25.348Z,476.33
2022-09-12T21:25:57.180Z,475.99
2022-09-12T21:31:28.917Z,475.81
2022-09-12T21:37:02.460Z,476.16
2022-09-12T21:42:33.949Z,476.33
2022-09-12T21:48:05.718Z,476.51
2022-09-12T21:53:37.360Z,475.99
2022-09-12T21:59:08.832Z,475.81
2022-09-12T22:04:40.534Z,475.99
2022-09-12T22:10:12.401Z,475.46
2022-09-12T22:15:43.889Z,475.64
2022-09-12T22:21:15.153Z,475.46
2022-09-12T22:26:46.942Z,475.64
2022-09-12T22:37:50.349Z,476.51
2022-09-12T22:43:21.687Z,477.21
2022-09-12T22:48:53.162Z,477.21
2022-09-12T22:54:25.225Z,477.82
2022-09-12T22:59:56.452Z,478.34
2022-09-12T23:05:27.951Z,478.51
2022-09-12T23:10:59.479Z,478.34
2022-09-12T23:16:30.981Z,478.69
2022-09-12T23:22:02.295Z,478.69
2022-09-12T23:27:33.482Z,478.69
2022-09-12T23:33:05.227Z,478.69
2022-09-12T23:38:36.734Z,479.04
2022-09-12T23:44:07.876Z,479.04
2022-09-12T23:49:39.448Z,479.56
2022-09-12T23:55:11.380Z,480.61
